Wendover Airport
KENV : rendu visible

Aérodrome :











RETROUVEZ-NOUS SUR...

 
LOGIN :

S'inscrire | Disclaimer

   EN    FR    IT 

 









Légende :    VFR   VFR Marginal   IFR   IFR Intensif   IFR Très Intensif
Visi : 
Plafond : 
>= 8 km
>= 3000ft
5 à 8 km
1000 à 3000 ft
1500m à 5 km
500 à 1000 ft
800 à 1500m
200 à 500 ft
< 800m
< 200 ft
Symboles :   Orages  Brouillard  Fortes neiges  Fortes précipitations  Vent > 20 kt






- Altitude de l'aérodrome : 4237 ft


KENV - Wendover

DERNIER METAR :
  • 190256Z AUTO 29004KT 10SM CLR M04/M12 A3020 RMK AO2 SLP275 T10441117 51005 FZRANO

METARs EXPIRÉS :
  • 190156Z AUTO 00000KT 10SM CLR M01/M12 A3019 RMK AO2 SLP269 T10111122 FZRANO
  • 190056Z AUTO 00000KT 10SM CLR 00/M12 A3018 RMK AO2 SLP261 T00001117 FZRANO

TAF KENV
Valide du 19 à 00h jusqu'au 20 à 00h UTC


182324Z 1900/1924 VRB04KT P6SM SCT180



MET'MAP, la Météo Aéronautique d'un coup d'oeil ! - Copyright ORBIFLY Décembre 2007 - Disclaimer

ORBIFLY MET'MAP TEAM :

Programmation & Développement : Alexandra Zaïnal
Sur une idée originale de : Baudouin d'Aumeries
Assistance à la programmation : Marc-Olivier Méhu
Soutien technique & logistique : Manuel Goepfert

Contact : metmap@orbifly.com




SOURCES & CREDITS :

   NOAA       Earth
Advisory